createdAt,value
2023-05-01T00:00:29.201Z,5.40
2023-05-01T00:02:58.439Z,6.30
2023-05-01T00:05:27.627Z,4.03
2023-05-01T00:10:20.738Z,5.07
2023-05-01T00:12:50.604Z,6.18
2023-05-01T00:15:19.487Z,4.97
2023-05-01T00:17:48.904Z,5.80
2023-05-01T00:20:15.545Z,4.35
2023-05-01T00:22:44.571Z,5.13
2023-05-01T00:25:11.205Z,6.75
2023-05-01T00:27:37.801Z,7.63
2023-05-01T00:30:05.271Z,6.07
2023-05-01T00:32:36.682Z,4.00
2023-05-01T00:35:05.993Z,4.97
2023-05-01T00:37:32.961Z,4.45
2023-05-01T00:39:59.916Z,5.05
2023-05-01T00:42:26.694Z,4.40
2023-05-01T00:44:53.414Z,3.65
2023-05-01T00:47:20.189Z,5.25
2023-05-01T00:49:50.857Z,5.20
2023-05-01T00:52:17.503Z,4.88
2023-05-01T00:54:51.864Z,5.30
2023-05-01T00:57:23.324Z,6.38
2023-05-01T00:59:52.170Z,4.78
2023-05-01T01:02:21.403Z,4.95
2023-05-01T01:04:48.662Z,5.75
2023-05-01T01:07:27.487Z,7.65
2023-05-01T01:10:24.812Z,5.07
2023-05-01T01:13:20.431Z,4.40
2023-05-01T01:15:50.070Z,4.82
2023-05-01T01:18:37.809Z,5.03
2023-05-01T01:21:32.271Z,4.07
2023-05-01T01:24:36.119Z,5.07
2023-05-01T01:27:40.012Z,4.97
2023-05-01T01:30:48.013Z,4.78
2023-05-01T01:33:25.487Z,5.18
2023-05-01T01:35:59.989Z,4.45
2023-05-01T01:38:39.809Z,5.00
2023-05-01T01:41:22.475Z,5.07
2023-05-01T01:44:00.855Z,5.15
2023-05-01T01:46:28.568Z,5.38
2023-05-01T01:48:57.939Z,4.90
2023-05-01T01:51:26.969Z,4.28
2023-05-01T01:53:56.601Z,6.35
2023-05-01T01:56:27.899Z,4.97
2023-05-01T01:58:57.955Z,4.35
2023-05-01T02:01:28.029Z,5.03
2023-05-01T02:03:57.944Z,5.38
2023-05-01T02:06:26.140Z,4.30
2023-05-01T02:08:54.135Z,3.88
2023-05-01T02:11:24.902Z,6.07
2023-05-01T02:13:53.883Z,5.07
2023-05-01T02:16:26.860Z,4.65
2023-05-01T02:18:55.678Z,3.90
2023-05-01T02:21:23.469Z,4.15
2023-05-01T02:23:52.975Z,4.43
2023-05-01T02:26:26.644Z,4.70
2023-05-01T02:28:53.792Z,5.32
2023-05-01T02:31:22.861Z,6.15
2023-05-01T02:33:49.625Z,5.88
2023-05-01T02:36:18.695Z,5.38
2023-05-01T02:38:51.238Z,7.70
2023-05-01T02:41:22.162Z,8.00
2023-05-01T02:43:57.005Z,6.53
2023-05-01T02:46:27.971Z,5.38
2023-05-01T02:48:58.357Z,5.05
2023-05-01T02:51:26.275Z,4.85
2023-05-01T02:53:55.818Z,4.35
2023-05-01T02:56:23.366Z,4.80
2023-05-01T02:58:53.464Z,6.38
2023-05-01T03:01:20.785Z,9.07
2023-05-01T03:03:49.830Z,5.45
2023-05-01T03:06:16.571Z,6.30
2023-05-01T03:08:45.467Z,5.07
2023-05-01T03:11:12.120Z,6.80
2023-05-01T03:13:44.053Z,6.72
2023-05-01T03:16:13.078Z,3.55
2023-05-01T03:18:41.944Z,4.53
2023-05-01T03:21:12.695Z,4.68
2023-05-01T03:23:39.395Z,5.05
2023-05-01T03:26:08.630Z,4.10
2023-05-01T03:28:35.309Z,4.95
2023-05-01T03:31:01.957Z,5.28
2023-05-01T03:33:28.558Z,6.78
2023-05-01T03:36:05.747Z,5.03
2023-05-01T03:38:34.961Z,6.45
2023-05-01T03:41:06.558Z,5.53
2023-05-01T03:43:35.767Z,4.82
2023-05-01T03:46:04.485Z,5.90
2023-05-01T03:48:31.145Z,5.30
2023-05-01T03:50:58.282Z,4.20
2023-05-01T03:53:27.229Z,6.07
2023-05-01T03:55:53.830Z,5.20
2023-05-01T03:58:23.243Z,5.88
2023-05-01T04:00:54.452Z,4.90
2023-05-01T04:03:21.231Z,4.93
2023-05-01T04:05:50.274Z,7.55
2023-05-01T04:08:19.677Z,5.97
2023-05-01T04:10:46.284Z,5.13
2023-05-01T04:13:13.011Z,6.35
2023-05-01T04:15:44.034Z,6.07
2023-05-01T04:18:10.872Z,5.00
2023-05-01T04:20:43.203Z,6.00
2023-05-01T04:23:12.811Z,5.85
2023-05-01T04:25:39.460Z,6.28
2023-05-01T04:28:12.063Z,5.05
2023-05-01T04:30:38.918Z,7.15
2023-05-01T04:33:11.687Z,5.22
2023-05-01T04:35:41.698Z,5.60
2023-05-01T04:38:09.190Z,5.22
2023-05-01T04:40:38.042Z,8.52
2023-05-01T04:43:04.773Z,5.22
2023-05-01T04:45:34.557Z,5.13
2023-05-01T04:48:01.260Z,6.90
2023-05-01T04:50:30.301Z,7.80
2023-05-01T04:53:01.901Z,5.03
2023-05-01T04:55:30.900Z,6.63
2023-05-01T04:58:00.252Z,5.93
2023-05-01T05:00:28.052Z,6.15
2023-05-01T05:02:57.138Z,6.13
2023-05-01T05:05:26.498Z,7.47
2023-05-01T05:07:53.060Z,6.70
2023-05-01T05:10:19.761Z,6.80
2023-05-01T05:12:46.375Z,7.22
2023-05-01T05:15:16.528Z,6.78
2023-05-01T05:17:43.121Z,7.50
2023-05-01T05:20:10.055Z,9.07
2023-05-01T05:22:37.481Z,7.43
2023-05-01T05:25:06.738Z,6.93
2023-05-01T05:27:37.933Z,6.50
2023-05-01T05:30:06.208Z,6.35
2023-05-01T05:32:35.344Z,8.45
2023-05-01T05:37:29.592Z,5.28
2023-05-01T05:39:58.612Z,4.97
2023-05-01T05:44:51.668Z,6.93
2023-05-01T05:47:18.290Z,5.88
2023-05-01T05:49:44.852Z,5.47
2023-05-01T05:52:11.601Z,5.00
2023-05-01T05:54:38.156Z,5.10
2023-05-01T05:57:04.776Z,4.45
2023-05-01T05:59:31.473Z,6.65
2023-05-01T06:02:01.385Z,6.05
2023-05-01T06:04:30.220Z,6.22
2023-05-01T06:06:57.927Z,5.85
2023-05-01T06:09:25.156Z,8.27
2023-05-01T06:11:51.841Z,5.18
2023-05-01T06:14:19.155Z,5.80
2023-05-01T06:16:46.020Z,5.82
2023-05-01T06:19:12.705Z,6.43
2023-05-01T06:21:39.412Z,6.70
2023-05-01T06:24:09.198Z,5.78
2023-05-01T06:26:35.858Z,4.85
2023-05-01T06:29:02.491Z,7.07
2023-05-01T06:31:31.540Z,5.90
2023-05-01T06:36:27.834Z,2.85
2023-05-01T06:38:59.316Z,3.78
2023-05-01T06:41:27.178Z,2.90
2023-05-01T06:43:56.390Z,4.53
2023-05-01T06:46:23.122Z,3.53
2023-05-01T06:48:49.860Z,3.40
2023-05-01T06:51:19.274Z,4.15
2023-05-01T06:53:46.239Z,3.00
2023-05-01T06:56:15.274Z,3.30
2023-05-01T07:01:11.756Z,2.75
2023-05-01T07:03:38.916Z,3.22
2023-05-01T07:06:05.863Z,4.30
2023-05-01T07:08:32.537Z,3.88
2023-05-01T07:11:01.608Z,3.53
2023-05-01T07:15:57.155Z,3.45
2023-05-01T07:18:23.838Z,2.28
2023-05-01T07:20:53.227Z,3.72
2023-05-01T07:23:20.423Z,2.63
2023-05-01T07:25:47.224Z,4.10
2023-05-01T07:28:18.116Z,4.38
2023-05-01T07:30:44.707Z,3.17
2023-05-01T07:33:13.933Z,3.78
2023-05-01T07:35:43.614Z,4.25
2023-05-01T07:38:14.099Z,3.92
2023-05-01T07:40:41.062Z,2.85
2023-05-01T07:43:11.131Z,3.00
2023-05-01T07:45:44.282Z,3.90
2023-05-01T07:48:11.128Z,3.33
2023-05-01T07:50:38.972Z,2.83
2023-05-01T07:53:10.261Z,3.38
2023-05-01T07:55:37.929Z,4.28
2023-05-01T07:58:11.573Z,4.68
2023-05-01T08:00:38.249Z,5.80
2023-05-01T08:03:07.260Z,4.18
2023-05-01T08:05:34.121Z,6.00
2023-05-01T08:08:00.721Z,4.35
2023-05-01T08:10:29.622Z,3.47
2023-05-01T08:12:56.181Z,3.88
2023-05-01T08:15:28.565Z,4.75
2023-05-01T08:17:55.204Z,4.10
2023-05-01T08:20:24.410Z,5.88
2023-05-01T08:22:51.474Z,2.80
2023-05-01T08:25:20.744Z,4.75
2023-05-01T08:27:50.412Z,4.47
2023-05-01T08:30:17.070Z,2.83
2023-05-01T08:32:43.859Z,3.47
2023-05-01T08:35:19.246Z,4.50
2023-05-01T08:37:53.210Z,3.60
2023-05-01T08:40:19.892Z,3.08
2023-05-01T08:42:51.946Z,3.85
2023-05-01T08:45:21.844Z,3.92
2023-05-01T08:47:49.666Z,7.05
2023-05-01T08:50:17.694Z,3.72
2023-05-01T08:52:44.514Z,4.30
2023-05-01T08:55:18.542Z,2.70
2023-05-01T08:57:51.502Z,3.25
2023-05-01T09:00:20.762Z,2.85
2023-05-01T09:02:51.758Z,4.85
2023-05-01T09:05:22.281Z,3.67
2023-05-01T09:07:51.181Z,2.88
2023-05-01T09:12:54.122Z,4.00
2023-05-01T09:15:21.651Z,2.60
2023-05-01T09:17:50.787Z,2.53
2023-05-01T09:20:22.141Z,2.53
2023-05-01T09:22:49.561Z,2.95
2023-05-01T09:25:16.176Z,3.15
2023-05-01T09:27:49.348Z,3.15
2023-05-01T09:30:35.728Z,3.15
2023-05-01T09:33:07.760Z,4.63
2023-05-01T09:35:51.922Z,3.08
2023-05-01T09:38:20.280Z,4.22
2023-05-01T09:40:47.272Z,3.63
2023-05-01T09:43:14.234Z,4.38
2023-05-01T09:45:59.116Z,2.50
2023-05-01T09:48:26.248Z,5.30
2023-05-01T09:50:54.970Z,2.60
2023-05-01T09:53:44.487Z,3.10
2023-05-01T09:56:11.098Z,2.78
2023-05-01T09:58:37.658Z,2.70
2023-05-01T10:01:04.359Z,3.00
2023-05-01T10:03:34.030Z,4.15
2023-05-01T10:06:04.403Z,3.10
2023-05-01T10:08:50.980Z,3.03
2023-05-01T10:11:17.663Z,3.60
2023-05-01T10:13:44.674Z,3.03
2023-05-01T10:16:31.690Z,4.22
2023-05-01T10:19:00.290Z,2.70
2023-05-01T10:21:27.951Z,3.85
2023-05-01T10:23:57.839Z,3.35
2023-05-01T10:26:26.505Z,3.67
2023-05-01T10:28:53.859Z,3.17
2023-05-01T10:31:22.960Z,2.75
2023-05-01T10:33:50.262Z,2.85
2023-05-01T10:36:43.921Z,3.08
2023-05-01T10:39:30.467Z,3.35
2023-05-01T10:42:06.639Z,3.30
2023-05-01T10:44:36.081Z,3.95
2023-05-01T10:47:29.880Z,2.65
2023-05-01T10:50:17.530Z,3.40
2023-05-01T10:53:12.116Z,3.42
2023-05-01T10:55:43.587Z,2.80
2023-05-01T10:58:12.977Z,3.63
2023-05-01T11:00:40.546Z,2.60
2023-05-01T11:03:36.877Z,3.33
2023-05-01T11:06:06.074Z,2.92
2023-05-01T11:08:34.500Z,2.85
2023-05-01T11:11:27.119Z,2.95
2023-05-01T11:14:02.855Z,4.25
2023-05-01T11:16:39.446Z,2.55
2023-05-01T11:19:21.363Z,3.42
2023-05-01T11:21:54.336Z,3.05
2023-05-01T11:24:30.953Z,3.15
2023-05-01T11:27:00.193Z,3.10
2023-05-01T11:29:33.799Z,2.67
2023-05-01T11:32:04.229Z,2.22
2023-05-01T11:34:38.213Z,3.42
2023-05-01T11:37:04.996Z,2.83
2023-05-01T11:39:34.725Z,2.15
2023-05-01T11:42:13.716Z,2.75
2023-05-01T11:44:42.619Z,2.90
2023-05-01T11:47:09.282Z,2.28
2023-05-01T11:49:38.999Z,2.80
2023-05-01T11:52:06.005Z,2.63
2023-05-01T11:54:47.227Z,2.58
2023-05-01T11:57:14.135Z,2.97
2023-05-01T11:59:40.769Z,5.63
2023-05-01T12:02:20.796Z,2.65
2023-05-01T12:04:52.795Z,2.95
2023-05-01T12:07:23.648Z,3.45
2023-05-01T12:09:56.062Z,3.10
2023-05-01T12:12:23.082Z,2.05
2023-05-01T12:14:49.881Z,1.80
2023-05-01T12:17:16.858Z,2.42
2023-05-01T12:19:52.895Z,2.22
2023-05-01T12:22:21.902Z,2.50
2023-05-01T12:24:52.776Z,2.70
2023-05-01T12:27:20.008Z,2.20
2023-05-01T12:29:48.195Z,3.10
2023-05-01T12:32:19.410Z,2.10
2023-05-01T12:34:46.121Z,2.28
2023-05-01T12:37:13.188Z,4.18
2023-05-01T12:39:42.671Z,2.25
2023-05-01T12:42:16.481Z,3.65
2023-05-01T12:44:45.662Z,2.92
2023-05-01T12:47:13.090Z,2.58
2023-05-01T12:49:42.083Z,2.78
2023-05-01T12:52:09.504Z,3.65
2023-05-01T12:54:44.030Z,3.88
2023-05-01T12:57:11.873Z,2.22
2023-05-01T12:59:41.251Z,1.90
2023-05-01T13:02:16.076Z,2.83
2023-05-01T13:04:49.672Z,3.72
2023-05-01T13:07:20.728Z,2.45
2023-05-01T13:10:04.215Z,2.05
2023-05-01T13:12:43.916Z,3.55
2023-05-01T13:15:24.078Z,2.60
2023-05-01T13:17:50.953Z,2.72
2023-05-01T13:20:26.572Z,1.40
2023-05-01T13:22:53.218Z,2.83
2023-05-01T13:25:22.566Z,2.35
2023-05-01T13:27:52.676Z,3.15
2023-05-01T13:30:24.114Z,3.33
2023-05-01T13:32:53.298Z,2.47
2023-05-01T13:35:25.021Z,3.97
2023-05-01T13:37:53.038Z,2.45
2023-05-01T13:40:20.660Z,2.20
2023-05-01T13:42:52.812Z,2.50
2023-05-01T13:45:21.183Z,3.00
2023-05-01T13:47:52.267Z,2.20
2023-05-01T13:50:19.049Z,1.90
2023-05-01T13:52:48.644Z,2.67
2023-05-01T13:55:17.806Z,2.03
2023-05-01T13:57:47.521Z,1.85
2023-05-01T14:00:17.798Z,2.60
2023-05-01T14:02:49.137Z,2.58
2023-05-01T14:05:16.317Z,3.38
2023-05-01T14:07:57.096Z,1.77
2023-05-01T14:10:27.671Z,3.17
2023-05-01T14:13:00.487Z,2.28
2023-05-01T14:15:30.765Z,1.63
2023-05-01T14:17:59.114Z,1.73
2023-05-01T14:20:25.730Z,3.55
2023-05-01T14:22:52.710Z,1.75
2023-05-01T14:25:24.516Z,1.90
2023-05-01T14:27:53.149Z,2.75
2023-05-01T14:30:28.824Z,2.40
2023-05-01T14:32:59.269Z,2.45
2023-05-01T14:35:26.269Z,2.45
2023-05-01T14:37:52.987Z,1.88
2023-05-01T14:40:27.665Z,3.17
2023-05-01T14:42:55.321Z,2.58
2023-05-01T14:45:22.112Z,2.00
2023-05-01T14:47:49.646Z,1.95
2023-05-01T14:50:24.061Z,2.30
2023-05-01T14:52:54.992Z,2.10
2023-05-01T14:55:34.598Z,2.10
2023-05-01T14:58:03.762Z,2.65
2023-05-01T15:00:30.793Z,2.20
2023-05-01T15:02:58.895Z,1.98
2023-05-01T15:05:28.658Z,2.75
2023-05-01T15:08:00.505Z,1.45
2023-05-01T15:10:29.863Z,2.22
2023-05-01T15:12:59.467Z,1.77
2023-05-01T15:15:28.925Z,2.45
2023-05-01T15:17:55.674Z,2.03
2023-05-01T15:20:24.888Z,1.77
2023-05-01T15:22:51.513Z,1.80
2023-05-01T15:25:22.859Z,2.13
2023-05-01T15:27:50.719Z,1.50
2023-05-01T15:30:17.457Z,1.50
2023-05-01T15:32:46.409Z,2.08
2023-05-01T15:35:17.587Z,1.75
2023-05-01T15:37:47.130Z,2.03
2023-05-01T15:40:16.447Z,4.07
2023-05-01T15:42:43.347Z,2.08
2023-05-01T15:45:10.777Z,2.63
2023-05-01T15:47:37.358Z,1.98
2023-05-01T15:50:04.548Z,2.63
2023-05-01T15:52:36.990Z,2.72
2023-05-01T15:55:03.799Z,1.95
2023-05-01T15:57:33.365Z,1.83
2023-05-01T16:00:00.578Z,2.45
2023-05-01T16:02:31.280Z,1.85
2023-05-01T16:04:58.257Z,1.85
2023-05-01T16:07:31.753Z,2.67
2023-05-01T16:09:58.836Z,1.50
2023-05-01T16:12:28.209Z,1.90
2023-05-01T16:14:55.267Z,2.55
2023-05-01T16:17:22.522Z,3.22
2023-05-01T16:19:49.671Z,1.88
2023-05-01T16:22:20.477Z,2.03
2023-05-01T16:24:49.411Z,2.28
2023-05-01T16:27:18.275Z,2.88
2023-05-01T16:34:24.239Z,2.60
2023-05-01T16:36:51.154Z,2.28
2023-05-01T16:39:22.278Z,3.00
2023-05-01T16:41:55.996Z,2.83
2023-05-01T16:44:23.374Z,2.92
2023-05-01T16:46:53.842Z,2.15
2023-05-01T16:49:23.726Z,6.10
2023-05-01T16:51:50.544Z,2.22
2023-05-01T16:54:21.113Z,2.70
2023-05-01T16:56:49.954Z,1.15
2023-05-01T16:59:19.026Z,2.88
2023-05-01T17:01:46.126Z,2.65
2023-05-01T17:04:16.446Z,2.90
2023-05-01T17:06:43.242Z,2.38
2023-05-01T17:09:12.429Z,2.40
2023-05-01T17:11:39.041Z,1.85
2023-05-01T17:14:05.999Z,3.63
2023-05-01T17:16:36.710Z,3.10
2023-05-01T17:19:08.954Z,2.50
2023-05-01T17:21:36.055Z,2.55
2023-05-01T17:24:02.812Z,1.73
2023-05-01T17:26:29.539Z,2.60
2023-05-01T17:28:56.200Z,2.63
2023-05-01T17:31:25.460Z,2.88
2023-05-01T17:33:52.144Z,2.03
2023-05-01T17:36:18.710Z,2.63
2023-05-01T17:38:45.368Z,1.17
2023-05-01T17:41:12.178Z,2.80
2023-05-01T17:43:41.724Z,2.70
2023-05-01T17:46:08.792Z,2.97
2023-05-01T17:48:35.461Z,2.50
2023-05-01T17:51:04.425Z,3.05
2023-05-01T17:53:30.994Z,1.15
2023-05-01T17:55:58.718Z,2.33
2023-05-01T17:58:25.302Z,1.98
2023-05-01T18:00:51.886Z,1.95
2023-05-01T18:03:21.312Z,3.97
2023-05-01T18:05:53.333Z,2.75
2023-05-01T18:08:20.081Z,2.85
2023-05-01T18:10:46.731Z,3.00
2023-05-01T18:13:13.396Z,2.90
2023-05-01T18:15:39.922Z,4.85
2023-05-01T18:18:09.118Z,9.98
2023-05-01T18:20:36.155Z,2.42
2023-05-01T18:23:03.149Z,2.92
2023-05-01T18:25:32.218Z,2.53
2023-05-01T18:27:59.631Z,3.67
2023-05-01T18:30:31.133Z,2.72
2023-05-01T18:32:57.771Z,3.58
2023-05-01T18:35:26.880Z,2.63
2023-05-01T18:37:53.999Z,2.80
2023-05-01T18:40:21.146Z,3.17
2023-05-01T18:42:50.088Z,2.63
2023-05-01T18:47:45.828Z,3.80
2023-05-01T18:50:17.020Z,2.67
2023-05-01T18:52:46.327Z,4.05
2023-05-01T18:55:15.429Z,2.92
2023-05-01T18:57:45.121Z,3.92
2023-05-01T19:00:14.581Z,3.40
2023-05-01T19:02:45.083Z,4.82
2023-05-01T19:05:16.450Z,4.18
2023-05-01T19:07:43.116Z,3.40
2023-05-01T19:10:12.240Z,3.90
2023-05-01T19:12:39.514Z,4.88
2023-05-01T19:15:06.518Z,3.17
2023-05-01T19:17:34.117Z,3.65
2023-05-01T19:20:01.036Z,2.55
2023-05-01T19:22:27.950Z,2.67
2023-05-01T19:24:54.503Z,4.15
2023-05-01T19:27:21.545Z,2.67
2023-05-01T19:29:48.328Z,4.80
2023-05-01T19:32:15.190Z,5.88
2023-05-01T19:34:46.698Z,4.70
2023-05-01T19:37:13.294Z,6.32
2023-05-01T19:39:39.855Z,4.60
2023-05-01T19:42:06.641Z,4.85
2023-05-01T19:44:33.224Z,3.03
2023-05-01T19:47:00.246Z,3.50
2023-05-01T19:49:29.145Z,2.67
2023-05-01T19:51:58.186Z,3.92
2023-05-01T19:54:27.448Z,3.38
2023-05-01T19:56:54.948Z,3.50
2023-05-01T19:59:24.049Z,4.95
2023-05-01T20:01:52.994Z,2.83
2023-05-01T20:06:46.938Z,2.90
2023-05-01T20:09:15.927Z,4.28
2023-05-01T20:11:42.558Z,4.90
2023-05-01T20:14:11.800Z,4.55
2023-05-01T20:16:38.385Z,4.63
2023-05-01T20:19:05.131Z,4.00
2023-05-01T20:21:32.726Z,2.58
2023-05-01T20:23:59.483Z,3.47
2023-05-01T20:26:26.274Z,3.13
2023-05-01T20:28:53.656Z,3.20
2023-05-01T20:31:20.330Z,4.20
2023-05-01T20:33:47.006Z,3.08
2023-05-01T20:36:17.426Z,3.05
2023-05-01T20:38:45.604Z,3.85
2023-05-01T20:41:12.383Z,3.67
2023-05-01T20:43:39.199Z,3.33
2023-05-01T20:46:05.988Z,3.40
2023-05-01T20:48:38.125Z,3.83
2023-05-01T20:51:05.130Z,3.83
2023-05-01T20:53:34.046Z,4.80
2023-05-01T20:58:27.285Z,4.85
2023-05-01T21:00:57.798Z,2.38
2023-05-01T21:03:26.956Z,3.95
2023-05-01T21:05:58.992Z,5.03
2023-05-01T21:08:27.877Z,3.05
2023-05-01T21:10:57.386Z,2.40
2023-05-01T21:13:26.365Z,6.05
2023-05-01T21:15:55.344Z,6.25
2023-05-01T21:20:54.215Z,5.35
2023-05-01T21:23:20.821Z,3.25
2023-05-01T21:25:53.448Z,2.65
2023-05-01T21:28:22.294Z,3.08
2023-05-01T21:30:54.189Z,5.53
2023-05-01T21:33:23.377Z,2.30
2023-05-01T21:35:50.085Z,2.75
2023-05-01T21:38:19.369Z,3.92
2023-05-01T21:40:46.400Z,2.88
2023-05-01T21:43:15.233Z,2.40
2023-05-01T21:45:46.985Z,4.18
2023-05-01T21:48:19.278Z,2.97
2023-05-01T21:50:50.263Z,4.88
2023-05-01T21:53:21.676Z,5.30
2023-05-01T21:55:48.520Z,3.53
2023-05-01T21:58:17.586Z,3.25
2023-05-01T22:00:48.070Z,4.38
2023-05-01T22:03:21.124Z,2.47
2023-05-01T22:05:47.754Z,3.10
2023-05-01T22:08:19.326Z,3.17
2023-05-01T22:10:46.619Z,3.40
2023-05-01T22:13:13.189Z,2.42
2023-05-01T22:15:39.747Z,2.80
2023-05-01T22:18:06.453Z,3.42
2023-05-01T22:20:42.116Z,3.42
2023-05-01T22:23:09.519Z,1.98
2023-05-01T22:25:38.492Z,3.28
2023-05-01T22:30:34.893Z,2.33
2023-05-01T22:33:01.679Z,2.88
2023-05-01T22:35:33.639Z,2.13
2023-05-01T22:38:01.168Z,2.20
2023-05-01T22:40:29.114Z,2.30
2023-05-01T22:42:58.914Z,4.75
2023-05-01T22:45:25.738Z,2.67
2023-05-01T22:47:57.243Z,3.15
2023-05-01T22:50:25.063Z,3.88
2023-05-01T22:52:51.745Z,2.90
2023-05-01T22:55:18.444Z,3.55
2023-05-01T22:57:45.833Z,2.85
2023-05-01T23:00:16.048Z,2.90
2023-05-01T23:02:48.621Z,1.90
2023-05-01T23:05:16.614Z,2.00
2023-05-01T23:07:46.363Z,2.15
2023-05-01T23:10:13.280Z,2.63
2023-05-01T23:12:42.368Z,4.50
2023-05-01T23:15:16.044Z,2.42
2023-05-01T23:17:45.630Z,1.95
2023-05-01T23:20:22.581Z,3.10
2023-05-01T23:22:50.507Z,4.57
2023-05-01T23:25:31.893Z,3.03
2023-05-01T23:27:58.691Z,2.15
2023-05-01T23:30:25.896Z,2.70
2023-05-01T23:32:57.731Z,2.05
2023-05-01T23:35:24.473Z,2.33
2023-05-01T23:37:54.036Z,1.95
2023-05-01T23:40:20.734Z,2.60
2023-05-01T23:42:47.966Z,2.42
2023-05-01T23:45:15.388Z,3.47
2023-05-01T23:47:49.175Z,2.25
2023-05-01T23:50:16.508Z,2.28
2023-05-01T23:52:43.107Z,3.78
2023-05-01T23:55:09.717Z,2.58
2023-05-01T23:57:36.824Z,3.10
